createdAt,value
2018-04-22T00:00:50.878Z,7.90
2018-04-22T00:03:20.375Z,7.90
2018-04-22T00:05:49.370Z,7.90
2018-04-22T00:08:18.203Z,7.90
2018-04-22T00:10:47.074Z,7.90
2018-04-22T00:13:15.851Z,7.90
2018-04-22T00:15:45.440Z,8.00
2018-04-22T00:18:14.527Z,8.00
2018-04-22T00:20:44.088Z,8.10
2018-04-22T00:23:12.949Z,8.10
2018-04-22T00:25:41.865Z,8.10
2018-04-22T00:28:10.611Z,8.20
2018-04-22T00:30:39.446Z,8.20
2018-04-22T00:33:08.245Z,8.20
2018-04-22T00:35:37.218Z,8.20
2018-04-22T00:38:06.249Z,8.20
2018-04-22T00:40:35.262Z,8.20
2018-04-22T00:43:04.817Z,8.20
2018-04-22T00:45:33.659Z,8.10
2018-04-22T00:48:02.496Z,8.10
2018-04-22T00:50:32.165Z,8.10
2018-04-22T00:53:00.939Z,8.10
2018-04-22T00:55:29.938Z,8.10
2018-04-22T00:57:58.911Z,8.10
2018-04-22T01:00:28.742Z,8.00
2018-04-22T01:02:57.798Z,7.90
2018-04-22T01:05:27.145Z,7.90
2018-04-22T01:07:56.728Z,7.70
2018-04-22T01:10:26.362Z,7.60
2018-04-22T01:12:56.109Z,7.50
2018-04-22T01:15:24.974Z,7.50
2018-04-22T01:17:53.961Z,7.50
2018-04-22T01:20:23.591Z,7.50
2018-04-22T01:22:52.783Z,7.50
2018-04-22T01:25:21.614Z,7.40
2018-04-22T01:27:50.430Z,7.40
2018-04-22T01:30:19.203Z,7.40
2018-04-22T01:32:47.964Z,7.30
2018-04-22T01:35:16.748Z,7.30
2018-04-22T01:37:45.584Z,7.30
2018-04-22T01:40:14.367Z,7.20
2018-04-22T01:42:43.235Z,7.20
2018-04-22T01:45:12.026Z,7.20
2018-04-22T01:47:41.228Z,7.20
2018-04-22T01:50:10.031Z,7.30
2018-04-22T01:52:39.839Z,7.40
2018-04-22T01:55:08.604Z,7.40
2018-04-22T01:57:38.161Z,7.40
2018-04-22T02:00:07.762Z,7.40
2018-04-22T02:02:36.606Z,7.40
2018-04-22T02:05:05.374Z,7.40
2018-04-22T02:07:35.176Z,7.40
2018-04-22T02:10:04.636Z,7.30
2018-04-22T02:12:33.480Z,7.30
2018-04-22T02:15:02.345Z,7.30
2018-04-22T02:17:32.108Z,7.10
2018-04-22T02:20:00.893Z,7.10
2018-04-22T02:22:29.599Z,7.00
2018-04-22T02:24:58.330Z,6.90
2018-04-22T02:27:27.926Z,6.80
2018-04-22T02:29:56.852Z,6.70
2018-04-22T02:32:25.637Z,6.70
2018-04-22T02:34:54.503Z,6.50
2018-04-22T02:37:24.116Z,6.40
2018-04-22T02:39:52.895Z,6.40
2018-04-22T02:42:21.648Z,6.40
2018-04-22T02:44:50.378Z,6.30
2018-04-22T02:47:19.959Z,6.20
2018-04-22T02:49:48.745Z,6.20
2018-04-22T02:52:17.460Z,6.30
2018-04-22T02:54:46.894Z,6.20
2018-04-22T02:57:15.678Z,6.20
2018-04-22T02:59:44.400Z,6.10
2018-04-22T03:02:13.978Z,5.90
2018-04-22T03:04:42.935Z,5.90
2018-04-22T03:07:11.956Z,5.90
2018-04-22T03:09:40.723Z,5.90
2018-04-22T03:12:09.486Z,5.90
2018-04-22T03:14:39.123Z,5.80
2018-04-22T03:17:08.789Z,5.90
2018-04-22T03:19:38.320Z,5.90
2018-04-22T03:22:07.339Z,5.90
2018-04-22T03:24:36.396Z,6.00
2018-04-22T03:27:05.921Z,6.00
2018-04-22T03:29:35.486Z,6.00
2018-04-22T03:32:04.433Z,6.00
2018-04-22T03:34:34.237Z,6.00
2018-04-22T03:37:03.106Z,6.00
2018-04-22T03:39:32.687Z,6.00
2018-04-22T03:42:02.453Z,6.10
2018-04-22T03:44:31.330Z,6.10
2018-04-22T03:47:00.186Z,6.20
2018-04-22T03:49:28.945Z,6.20
2018-04-22T03:52:05.019Z,6.30
2018-04-22T03:54:34.075Z,6.40
2018-04-22T03:57:04.570Z,6.30
2018-04-22T03:59:34.968Z,6.60
2018-04-22T04:02:04.685Z,6.50
2018-04-22T04:04:34.301Z,6.80
2018-04-22T04:07:06.136Z,6.90
2018-04-22T04:09:35.876Z,6.90
2018-04-22T04:12:06.102Z,7.10
2018-04-22T04:14:36.127Z,7.20
2018-04-22T04:17:05.659Z,7.30
2018-04-22T04:19:48.217Z,7.30
2018-04-22T04:22:29.655Z,7.50
2018-04-22T04:28:16.000Z,7.80
2018-04-22T04:30:46.367Z,8.00
2018-04-22T04:33:15.140Z,8.00
2018-04-22T04:35:43.983Z,8.20
2018-04-22T04:38:12.852Z,8.30
2018-04-22T04:40:41.649Z,8.50
2018-04-22T04:43:10.473Z,8.70
2018-04-22T04:45:39.438Z,8.90
2018-04-22T04:48:08.281Z,9.10
2018-04-22T04:50:38.052Z,9.40
2018-04-22T04:53:06.968Z,9.40
2018-04-22T04:55:36.054Z,9.60
2018-04-22T04:58:04.814Z,9.90
2018-04-22T05:00:33.695Z,10.10
2018-04-22T05:03:02.756Z,10.30
2018-04-22T05:05:31.563Z,10.60
2018-04-22T05:08:01.083Z,11.00
2018-04-22T05:10:29.938Z,10.90
2018-04-22T05:12:58.707Z,11.00
2018-04-22T05:15:27.544Z,11.20
2018-04-22T05:17:56.356Z,11.20
2018-04-22T05:20:25.355Z,11.30
2018-04-22T05:22:54.329Z,11.40
2018-04-22T05:25:23.225Z,11.50
2018-04-22T05:27:52.910Z,11.70
2018-04-22T05:30:21.773Z,11.70
2018-04-22T05:32:50.554Z,11.70
2018-04-22T05:35:20.325Z,12.00
2018-04-22T05:37:49.371Z,12.00
2018-04-22T05:40:18.097Z,12.20
2018-04-22T05:42:46.885Z,12.40
2018-04-22T05:45:15.682Z,12.60
2018-04-22T05:47:44.490Z,12.80
2018-04-22T05:50:13.252Z,13.00
2018-04-22T05:52:42.098Z,13.00
2018-04-22T05:55:10.903Z,13.30
2018-04-22T05:57:40.678Z,13.70
2018-04-22T06:00:09.444Z,13.70
2018-04-22T06:02:38.561Z,14.00
2018-04-22T06:05:07.322Z,14.30
2018-04-22T06:07:36.310Z,14.30
2018-04-22T06:10:05.236Z,14.60
2018-04-22T06:12:34.119Z,15.20
2018-04-22T06:15:02.856Z,15.40
2018-04-22T06:17:31.683Z,15.70
2018-04-22T06:20:00.457Z,15.70
2018-04-22T06:22:30.067Z,15.80
2018-04-22T06:24:59.107Z,15.80
2018-04-22T06:27:27.945Z,15.90
2018-04-22T06:29:56.817Z,15.80
2018-04-22T06:32:26.442Z,16.00
2018-04-22T06:34:55.299Z,16.00
2018-04-22T06:37:24.293Z,16.20
2018-04-22T06:39:53.811Z,16.40
2018-04-22T06:42:22.925Z,16.40
2018-04-22T06:44:52.447Z,16.70
2018-04-22T06:47:21.227Z,16.70
2018-04-22T06:49:50.209Z,16.80
2018-04-22T06:52:19.678Z,17.50
2018-04-22T06:54:48.418Z,17.40
2018-04-22T06:57:17.415Z,17.90
2018-04-22T06:59:46.282Z,17.90
2018-04-22T07:02:15.865Z,17.90
2018-04-22T07:04:44.699Z,17.90
2018-04-22T07:07:13.553Z,18.20
2018-04-22T07:09:42.635Z,18.30
2018-04-22T07:12:12.229Z,18.70
2018-04-22T07:14:41.035Z,18.70
2018-04-22T07:17:09.907Z,18.60
2018-04-22T07:19:38.694Z,18.50
2018-04-22T07:22:07.697Z,18.80
2018-04-22T07:24:36.682Z,19.30
2018-04-22T07:27:05.895Z,19.70
2018-04-22T07:29:34.892Z,19.70
2018-04-22T07:32:03.777Z,20.10
2018-04-22T07:34:33.470Z,19.40
2018-04-22T07:37:02.756Z,19.40
2018-04-22T07:39:31.577Z,19.50
2018-04-22T07:42:01.165Z,19.80
2018-04-22T07:44:30.006Z,19.80
2018-04-22T07:46:58.850Z,20.20
2018-04-22T07:49:28.585Z,20.50
2018-04-22T07:51:58.242Z,20.50
2018-04-22T07:54:27.396Z,20.50
2018-04-22T07:56:57.144Z,20.10
2018-04-22T07:59:25.996Z,20.10
2018-04-22T08:01:55.276Z,20.80
2018-04-22T08:04:24.841Z,20.90
2018-04-22T08:06:53.624Z,20.90
2018-04-22T08:09:22.471Z,21.30
2018-04-22T08:11:52.015Z,20.90
2018-04-22T08:14:20.850Z,20.90
2018-04-22T08:16:49.584Z,20.60
2018-04-22T08:19:18.492Z,20.90
2018-04-22T08:21:47.306Z,20.20
2018-04-22T08:24:16.065Z,20.30
2018-04-22T08:26:44.887Z,20.50
2018-04-22T08:29:13.659Z,20.90
2018-04-22T08:31:42.583Z,21.20
2018-04-22T08:34:12.494Z,21.20
2018-04-22T08:36:41.965Z,20.70
2018-04-22T08:39:11.313Z,20.70
2018-04-22T08:41:40.073Z,20.90
2018-04-22T08:44:09.704Z,21.40
2018-04-22T08:46:38.431Z,21.40
2018-04-22T08:49:07.226Z,21.50
2018-04-22T08:51:36.307Z,21.10
2018-04-22T08:54:06.014Z,20.50
2018-04-22T08:56:34.810Z,20.50
2018-04-22T08:59:03.801Z,20.70
2018-04-22T09:01:32.840Z,21.20
2018-04-22T09:04:01.528Z,21.20
2018-04-22T09:06:30.412Z,21.40
2018-04-22T09:08:59.432Z,21.70
2018-04-22T09:11:28.394Z,21.80
2018-04-22T09:13:58.089Z,21.90
2018-04-22T09:16:26.901Z,21.90
2018-04-22T09:18:55.688Z,21.90
2018-04-22T09:21:24.732Z,22.00
2018-04-22T09:23:53.476Z,22.10
2018-04-22T09:26:23.021Z,22.90
2018-04-22T09:28:51.884Z,22.80
2018-04-22T09:31:21.523Z,22.40
2018-04-22T09:33:50.687Z,22.30
2018-04-22T09:36:20.195Z,22.40
2018-04-22T09:38:49.802Z,22.30
2018-04-22T09:41:19.846Z,22.30
2018-04-22T09:43:48.691Z,22.20
2018-04-22T09:46:17.635Z,22.40
2018-04-22T09:48:46.411Z,22.90
2018-04-22T09:51:15.188Z,22.80
2018-04-22T09:53:44.761Z,22.80
2018-04-22T09:56:13.738Z,22.80
2018-04-22T09:58:42.654Z,23.60
2018-04-22T10:01:26.271Z,23.50
2018-04-22T10:03:57.188Z,23.10
2018-04-22T10:06:25.882Z,22.90
2018-04-22T10:08:54.696Z,23.40
2018-04-22T10:11:23.646Z,23.70
2018-04-22T10:13:53.188Z,23.90
2018-04-22T10:16:22.045Z,23.90
2018-04-22T10:18:50.890Z,23.30
2018-04-22T10:21:20.752Z,23.30
2018-04-22T10:23:49.628Z,23.30
2018-04-22T10:26:19.042Z,23.70
2018-04-22T10:28:48.091Z,24.40
2018-04-22T10:31:16.923Z,24.20
2018-04-22T10:33:45.752Z,24.30
2018-04-22T10:36:14.533Z,24.10
2018-04-22T10:38:43.366Z,24.20
2018-04-22T10:41:13.155Z,24.20
2018-04-22T10:43:42.076Z,24.20
2018-04-22T10:46:11.013Z,24.60
2018-04-22T10:48:39.794Z,23.90
2018-04-22T10:51:08.579Z,24.40
2018-04-22T10:53:37.376Z,24.20
2018-04-22T10:56:06.540Z,24.10
2018-04-22T10:58:36.054Z,23.80
2018-04-22T11:01:05.042Z,23.70
2018-04-22T11:03:34.753Z,23.90
2018-04-22T11:06:04.411Z,24.50
2018-04-22T11:08:34.335Z,24.60
2018-04-22T11:11:04.554Z,24.60
2018-04-22T11:13:34.406Z,24.50
2018-04-22T11:16:03.342Z,24.50
2018-04-22T11:18:32.194Z,24.90
2018-04-22T11:21:01.331Z,24.60
2018-04-22T11:23:30.951Z,24.40
2018-04-22T11:26:00.148Z,24.40
2018-04-22T11:28:29.105Z,24.40
2018-04-22T11:30:58.134Z,24.60
2018-04-22T11:33:26.984Z,24.70
2018-04-22T11:35:55.804Z,24.80
2018-04-22T11:38:24.633Z,24.90
2018-04-22T11:40:53.509Z,25.10
2018-04-22T11:43:23.142Z,25.30
2018-04-22T11:45:52.011Z,25.30
2018-04-22T11:48:20.974Z,25.50
2018-04-22T11:50:50.082Z,25.20
2018-04-22T11:53:18.871Z,25.00
2018-04-22T11:55:47.669Z,25.20
2018-04-22T11:58:17.207Z,25.30
2018-04-22T12:00:46.287Z,25.30
2018-04-22T12:03:15.236Z,25.20
2018-04-22T12:05:44.148Z,25.20
2018-04-22T12:08:13.736Z,25.40
2018-04-22T12:10:42.637Z,25.40
2018-04-22T12:13:12.914Z,25.60
2018-04-22T12:15:41.723Z,25.00
2018-04-22T12:18:10.481Z,25.20
2018-04-22T12:20:39.410Z,24.90
2018-04-22T12:23:08.157Z,25.20
2018-04-22T12:25:37.077Z,24.80
2018-04-22T12:28:06.096Z,24.70
2018-04-22T12:30:35.331Z,24.70
2018-04-22T12:33:05.242Z,24.70
2018-04-22T12:35:34.631Z,24.70
2018-04-22T12:38:03.388Z,24.80
2018-04-22T12:40:34.512Z,24.80
2018-04-22T12:43:04.109Z,24.80
2018-04-22T12:45:32.907Z,25.10
2018-04-22T12:48:02.594Z,25.20
2018-04-22T12:50:31.431Z,25.20
2018-04-22T12:53:01.027Z,24.90
2018-04-22T12:55:37.301Z,24.90
2018-04-22T12:58:08.818Z,25.00
2018-04-22T13:00:37.620Z,24.80
2018-04-22T13:03:06.445Z,25.00
2018-04-22T13:05:36.162Z,25.10
2018-04-22T13:08:04.971Z,25.00
2018-04-22T13:10:34.101Z,25.30
2018-04-22T13:13:02.902Z,25.50
2018-04-22T13:15:31.834Z,25.30
2018-04-22T13:18:01.327Z,24.90
2018-04-22T13:20:30.102Z,24.90
2018-04-22T13:22:58.889Z,24.80
2018-04-22T13:25:28.471Z,24.60
2018-04-22T13:27:57.168Z,24.50
2018-04-22T13:30:26.107Z,24.70
2018-04-22T13:32:56.012Z,24.80
2018-04-22T13:35:25.189Z,24.70
2018-04-22T13:37:54.207Z,24.70
2018-04-22T13:40:23.544Z,24.60
2018-04-22T13:42:52.395Z,25.00
2018-04-22T13:45:21.278Z,24.90
2018-04-22T13:47:50.057Z,24.70
2018-04-22T13:50:19.686Z,24.40
2018-04-22T13:52:48.502Z,24.30
2018-04-22T13:55:17.294Z,24.50
2018-04-22T13:57:46.336Z,24.60
2018-04-22T14:00:16.172Z,24.30
2018-04-22T14:02:46.018Z,24.40
2018-04-22T14:05:14.775Z,24.30
2018-04-22T14:07:44.286Z,24.20
2018-04-22T14:10:14.163Z,24.20
2018-04-22T14:12:42.995Z,24.10
2018-04-22T14:15:12.786Z,24.20
2018-04-22T14:17:42.422Z,24.00
2018-04-22T14:20:12.081Z,23.90
2018-04-22T14:22:40.751Z,23.90
2018-04-22T14:25:09.817Z,24.00
2018-04-22T14:27:39.378Z,24.20
2018-04-22T14:30:08.203Z,24.20
2018-04-22T14:32:37.200Z,24.10
2018-04-22T14:35:06.108Z,24.10
2018-04-22T14:37:34.892Z,24.30
2018-04-22T14:40:03.799Z,24.30
2018-04-22T14:42:32.632Z,24.30
2018-04-22T14:45:14.033Z,24.10
2018-04-22T14:47:42.781Z,24.10
2018-04-22T14:50:12.355Z,23.90
2018-04-22T14:52:41.104Z,23.90
2018-04-22T14:55:09.865Z,23.80
2018-04-22T14:57:38.711Z,23.80
2018-04-22T15:00:07.524Z,23.90
2018-04-22T15:02:36.483Z,24.00
2018-04-22T15:05:06.009Z,24.20
2018-04-22T15:07:34.797Z,24.10
2018-04-22T15:10:03.877Z,24.10
2018-04-22T15:12:32.678Z,24.20
2018-04-22T15:15:01.462Z,24.00
2018-04-22T15:17:30.228Z,23.80
2018-04-22T15:20:00.016Z,23.50
2018-04-22T15:22:28.863Z,23.50
2018-04-22T15:24:57.628Z,23.50
2018-04-22T15:27:27.147Z,23.00
2018-04-22T15:29:55.914Z,23.00
2018-04-22T15:32:25.632Z,22.80
2018-04-22T15:34:55.313Z,22.80
2018-04-22T15:37:25.039Z,22.60
2018-04-22T15:39:53.838Z,22.60
2018-04-22T15:42:23.414Z,22.50
2018-04-22T15:44:52.237Z,22.50
2018-04-22T15:47:21.134Z,22.40
2018-04-22T15:49:50.156Z,22.30
2018-04-22T15:52:19.268Z,22.00
2018-04-22T15:54:48.047Z,21.80
2018-04-22T15:57:16.976Z,21.70
2018-04-22T15:59:45.818Z,21.40
2018-04-22T16:02:14.616Z,21.30
2018-04-22T16:04:43.473Z,21.20
2018-04-22T16:07:12.260Z,21.10
2018-04-22T16:09:41.717Z,20.80
2018-04-22T16:12:11.277Z,20.70
2018-04-22T16:14:40.098Z,20.70
2018-04-22T16:17:09.049Z,20.60
2018-04-22T16:19:37.812Z,20.40
2018-04-22T16:22:06.674Z,20.20
2018-04-22T16:24:36.240Z,20.00
2018-04-22T16:27:05.105Z,19.90
2018-04-22T16:29:33.966Z,19.80
2018-04-22T16:32:02.816Z,19.70
2018-04-22T16:34:31.663Z,19.60
2018-04-22T16:37:00.340Z,19.40
2018-04-22T16:39:29.160Z,19.30
2018-04-22T16:41:57.999Z,19.10
2018-04-22T16:44:26.751Z,18.90
2018-04-22T16:46:56.707Z,18.70
2018-04-22T16:49:25.508Z,18.70
2018-04-22T16:51:55.106Z,18.50
2018-04-22T16:54:23.906Z,18.50
2018-04-22T16:56:53.492Z,18.30
2018-04-22T16:59:22.333Z,18.30
2018-04-22T17:01:51.133Z,18.10
2018-04-22T17:04:21.019Z,17.90
2018-04-22T17:06:49.763Z,17.70
2018-04-22T17:09:18.536Z,17.60
2018-04-22T17:11:47.653Z,17.50
2018-04-22T17:14:16.566Z,17.40
2018-04-22T17:16:45.416Z,17.30
2018-04-22T17:19:14.636Z,17.20
2018-04-22T17:21:43.872Z,17.10
2018-04-22T17:24:13.652Z,17.00
2018-04-22T17:26:42.541Z,17.00
2018-04-22T17:29:11.356Z,16.90
2018-04-22T17:31:40.272Z,16.80
2018-04-22T17:34:09.123Z,16.70
2018-04-22T17:36:38.653Z,16.50
2018-04-22T17:39:07.459Z,16.50
2018-04-22T17:41:36.249Z,16.40
2018-04-22T17:44:05.169Z,16.20
2018-04-22T17:46:34.528Z,16.00
2018-04-22T17:49:03.461Z,15.90
2018-04-22T17:51:32.406Z,15.80
2018-04-22T17:54:01.928Z,15.70
2018-04-22T17:56:30.733Z,15.70
2018-04-22T17:58:59.575Z,15.60
2018-04-22T18:01:28.457Z,15.40
2018-04-22T18:03:57.330Z,15.40
2018-04-22T18:06:26.190Z,15.40
2018-04-22T18:08:55.084Z,15.40
2018-04-22T18:11:24.920Z,15.30
2018-04-22T18:13:53.823Z,15.30
2018-04-22T18:16:22.809Z,15.30
2018-04-22T18:18:52.011Z,15.20
2018-04-22T18:21:21.522Z,15.10
2018-04-22T18:23:50.329Z,15.10
2018-04-22T18:26:19.946Z,14.90
2018-04-22T18:28:49.020Z,14.90
2018-04-22T18:31:17.794Z,14.90
2018-04-22T18:33:47.528Z,14.80
2018-04-22T18:36:17.317Z,14.70
2018-04-22T18:38:46.056Z,14.70
2018-04-22T18:41:14.971Z,14.60
2018-04-22T18:43:43.838Z,14.50
2018-04-22T18:46:13.320Z,14.40
2018-04-22T18:48:43.076Z,14.40
2018-04-22T18:51:11.918Z,14.40
2018-04-22T18:53:41.161Z,14.30
2018-04-22T18:56:09.999Z,14.30
2018-04-22T18:58:39.580Z,14.20
2018-04-22T19:01:09.354Z,14.20
2018-04-22T19:03:38.978Z,14.10
2018-04-22T19:06:07.994Z,14.00
2018-04-22T19:08:37.053Z,14.00
2018-04-22T19:11:05.935Z,14.00
2018-04-22T19:13:35.147Z,13.90
2018-04-22T19:16:05.065Z,13.90
2018-04-22T19:18:33.833Z,13.80
2018-04-22T19:21:02.631Z,13.80
2018-04-22T19:23:31.375Z,13.70
2018-04-22T19:26:00.991Z,13.70
2018-04-22T19:28:29.827Z,13.70
2018-04-22T19:30:58.621Z,13.70
2018-04-22T19:33:27.576Z,13.60
2018-04-22T19:35:56.419Z,13.50
2018-04-22T19:38:25.415Z,13.50
2018-04-22T19:40:54.253Z,13.40
2018-04-22T19:43:23.044Z,13.40
2018-04-22T19:45:51.861Z,13.40
2018-04-22T19:48:20.876Z,13.40
2018-04-22T19:50:49.786Z,13.30
2018-04-22T19:53:18.929Z,13.20
2018-04-22T19:55:47.978Z,13.20
2018-04-22T19:58:17.666Z,13.10
2018-04-22T20:00:46.734Z,13.10
2018-04-22T20:03:15.566Z,13.00
2018-04-22T20:05:44.591Z,12.90
2018-04-22T20:08:13.408Z,12.80
2018-04-22T20:10:43.016Z,12.80
2018-04-22T20:13:11.844Z,12.80
2018-04-22T20:15:40.729Z,12.80
2018-04-22T20:18:09.930Z,12.70
2018-04-22T20:20:38.854Z,12.70
2018-04-22T20:23:07.837Z,12.70
2018-04-22T20:25:36.803Z,12.60
2018-04-22T20:28:05.767Z,12.60
2018-04-22T20:30:34.606Z,12.50
2018-04-22T20:33:03.424Z,12.50
2018-04-22T20:35:32.450Z,12.40
2018-04-22T20:38:01.288Z,12.40
2018-04-22T20:40:30.304Z,12.40
2018-04-22T20:42:59.132Z,12.30
2018-04-22T20:45:27.903Z,12.30
2018-04-22T20:47:56.823Z,12.30
2018-04-22T20:50:26.312Z,12.20
2018-04-22T20:52:55.335Z,12.20
2018-04-22T20:55:27.662Z,12.20
2018-04-22T20:57:58.352Z,12.10
2018-04-22T21:00:28.180Z,12.10
2018-04-22T21:02:57.119Z,12.00
2018-04-22T21:05:25.998Z,12.00
2018-04-22T21:07:54.887Z,11.90
2018-04-22T21:10:23.758Z,11.90
2018-04-22T21:12:52.543Z,11.90
2018-04-22T21:15:21.329Z,11.90
2018-04-22T21:17:50.373Z,11.80
2018-04-22T21:20:19.483Z,11.80
2018-04-22T21:22:49.227Z,11.80
2018-04-22T21:25:18.080Z,11.80
2018-04-22T21:27:46.964Z,11.70
2018-04-22T21:30:16.631Z,11.70
2018-04-22T21:32:45.599Z,11.60
2018-04-22T21:35:14.519Z,11.70
2018-04-22T21:37:43.323Z,11.60
2018-04-22T21:40:12.896Z,11.60
2018-04-22T21:42:41.935Z,11.60
2018-04-22T21:45:10.721Z,11.60
2018-04-22T21:47:39.490Z,11.60
2018-04-22T21:50:08.280Z,11.60
2018-04-22T21:52:38.084Z,11.60
2018-04-22T21:55:07.098Z,11.60
2018-04-22T21:57:36.077Z,11.50
2018-04-22T22:00:04.939Z,11.50
2018-04-22T22:02:34.900Z,11.30
2018-04-22T22:05:13.437Z,11.30
2018-04-22T22:07:43.642Z,11.10
2018-04-22T22:10:12.513Z,11.10
2018-04-22T22:12:41.319Z,11.00
2018-04-22T22:15:10.164Z,10.90
2018-04-22T22:17:39.214Z,10.90
2018-04-22T22:20:07.999Z,10.90
2018-04-22T22:22:36.737Z,10.90
2018-04-22T22:25:05.627Z,10.90
2018-04-22T22:27:35.334Z,10.90
2018-04-22T22:30:05.412Z,10.90
2018-04-22T22:32:34.454Z,10.80
2018-04-22T22:35:03.446Z,10.80
2018-04-22T22:37:32.355Z,10.80
2018-04-22T22:40:01.135Z,10.70
2018-04-22T22:42:31.083Z,10.60
2018-04-22T22:44:59.928Z,10.60
2018-04-22T22:47:28.811Z,10.60
2018-04-22T22:49:57.604Z,10.70
2018-04-22T22:52:26.434Z,10.60
2018-04-22T22:54:55.227Z,10.60
2018-04-22T22:57:25.960Z,10.60
2018-04-22T22:59:54.935Z,10.60
2018-04-22T23:02:23.776Z,10.60
2018-04-22T23:04:52.662Z,10.60
2018-04-22T23:07:22.187Z,10.60
2018-04-22T23:09:51.952Z,10.60
2018-04-22T23:12:21.584Z,10.60
2018-04-22T23:14:51.367Z,10.60
2018-04-22T23:17:20.136Z,10.60
2018-04-22T23:19:48.921Z,10.60
2018-04-22T23:22:17.739Z,10.70
2018-04-22T23:24:46.577Z,10.70
2018-04-22T23:27:15.382Z,10.70
2018-04-22T23:29:44.120Z,10.70
2018-04-22T23:32:13.684Z,10.70
2018-04-22T23:34:42.735Z,10.60
2018-04-22T23:37:12.372Z,10.60
2018-04-22T23:39:41.252Z,10.60
2018-04-22T23:42:10.350Z,10.60
2018-04-22T23:44:39.539Z,10.60
2018-04-22T23:47:08.400Z,10.60
2018-04-22T23:49:37.214Z,10.60
2018-04-22T23:52:06.069Z,10.50
2018-04-22T23:54:35.559Z,10.50
2018-04-22T23:57:04.510Z,10.50
2018-04-22T23:59:34.345Z,10.40
